Time;durP1;ratioP1;P1;durP2;ratioP2;P2;SDS_P1;SDS_P2;PMS_P1;PMS_P2;Temp;Humidity;BMP_temperature;BMP_pressure;BME280_temperature;BME280_humidity;BME280_pressure;Samples;Min_cycle;Max_cycle;Signal;HPM_P1;HPM_P2
2021/12/12 00:00:48;;;;;;;17.23;15.53;;;4.90;45.60;;;;;;10278826;28;20236;-72
2021/12/12 00:05:55;;;;;;;16.37;14.80;;;4.90;45.50;;;;;;10275708;28;20236;-71
2021/12/12 00:11:00;;;;;;;16.70;15.10;;;4.90;45.60;;;;;;10278211;28;20235;-72
2021/12/12 00:16:04;;;;;;;15.43;13.87;;;4.90;45.60;;;;;;10278208;28;20597;-72
2021/12/12 00:21:12;;;;;;;15.70;14.20;;;5.00;45.70;;;;;;10275292;28;20232;-72
2021/12/12 00:26:15;;;;;;;15.83;14.13;;;5.00;45.80;;;;;;10278231;28;20231;-72
2021/12/12 00:31:21;;;;;;;14.17;12.77;;;5.00;45.60;;;;;;10273362;28;20232;-71
2021/12/12 00:36:27;;;;;;;12.47;11.27;;;5.00;45.90;;;;;;10275819;28;20243;-71
2021/12/12 00:41:35;;;;;;;10.57;9.57;;;5.00;45.90;;;;;;10280273;28;20262;-72
2021/12/12 00:46:38;;;;;;;12.00;10.90;;;5.10;46.10;;;;;;10279561;28;20236;-71
2021/12/12 00:51:45;;;;;;;12.27;11.10;;;5.10;46.10;;;;;;10275912;28;20243;-72
2021/12/12 00:56:49;;;;;;;12.33;11.10;;;5.10;46.20;;;;;;10273924;28;20238;-71
2021/12/12 01:01:54;;;;;;;14.53;12.97;;;5.20;46.20;;;;;;10279286;28;20236;-71
2021/12/12 01:07:04;;;;;;;12.30;10.97;;;5.20;46.10;;;;;;10273131;28;20302;-71
2021/12/12 01:12:11;;;;;;;11.57;10.43;;;5.20;46.10;;;;;;10274762;28;20232;-71
2021/12/12 01:17:21;;;;;;;11.37;10.27;;;5.30;46.30;;;;;;10277028;28;20697;-71
2021/12/12 01:22:32;;;;;;;11.30;10.20;;;5.30;46.30;;;;;;10265290;28;20240;-69
2021/12/12 01:27:35;;;;;;;10.30;9.40;;;5.30;46.30;;;;;;10274486;28;20463;-70
2021/12/12 01:32:38;;;;;;;10.83;9.87;;;5.40;46.10;;;;;;10274720;28;20227;-71
2021/12/12 01:38:50;;;;;;;11.53;10.43;;;5.40;46.10;;;;;;10274482;28;20232;-72
2021/12/12 01:43:19;;;;;;;11.60;10.40;;;5.50;46.30;;;;;;10274889;28;20702;-71
2021/12/12 01:48:27;;;;;;;10.80;9.80;;;5.50;46.30;;;;;;10270817;28;20231;-71
2021/12/12 01:53:36;;;;;;;10.47;9.47;;;5.50;46.20;;;;;;10273944;28;20450;-71
2021/12/12 01:58:42;;;;;;;11.80;10.63;;;5.50;46.30;;;;;;10273683;28;20242;-70
2021/12/12 02:03:49;;;;;;;11.47;10.37;;;5.60;46.10;;;;;;10275051;28;20254;-69
2021/12/12 02:08:55;;;;;;;12.13;11.03;;;5.60;46.20;;;;;;10278031;28;20242;-70
2021/12/12 02:14:08;;;;;;;11.77;10.60;;;5.60;46.20;;;;;;10274753;28;20239;-70
2021/12/12 02:19:12;;;;;;;11.93;10.83;;;5.60;46.10;;;;;;10272571;28;20234;-70
2021/12/12 02:35:15;;;;;;;11.50;10.30;;;5.70;46.00;;;;;;10269778;28;20751;-71
2021/12/12 02:40:22;;;;;;;11.33;10.27;;;5.70;46.10;;;;;;10270320;28;20604;-71
2021/12/12 02:45:29;;;;;;;11.77;10.60;;;5.70;46.20;;;;;;10273565;28;20517;-71
2021/12/12 02:50:36;;;;;;;12.57;11.27;;;5.70;46.10;;;;;;10271057;28;20236;-71
2021/12/12 02:55:44;;;;;;;12.33;11.17;;;5.70;46.30;;;;;;10269088;28;20228;-71
2021/12/12 03:00:52;;;;;;;11.43;10.37;;;5.70;46.20;;;;;;10273937;28;20243;-71
2021/12/12 03:05:57;;;;;;;11.80;10.60;;;5.70;46.30;;;;;;10266464;28;20243;-71
2021/12/12 03:11:02;;;;;;;11.90;10.80;;;5.80;46.10;;;;;;10274404;28;20235;-70
2021/12/12 03:16:07;;;;;;;11.47;10.37;;;5.80;46.30;;;;;;10271598;28;20252;-71
2021/12/12 03:21:16;;;;;;;11.60;10.50;;;5.80;46.20;;;;;;10274618;28;20242;-72
2021/12/12 03:26:21;;;;;;;11.23;10.10;;;5.80;46.30;;;;;;10280452;28;20242;-70
2021/12/12 03:31:27;;;;;;;11.93;9.63;;;5.80;46.20;;;;;;10279432;28;20714;-73
2021/12/12 03:36:30;;;;;;;10.27;9.30;;;5.80;46.20;;;;;;10281481;28;20228;-73
2021/12/12 03:41:36;;;;;;;9.10;8.20;;;5.80;46.10;;;;;;10277853;28;20240;-73
2021/12/12 03:46:40;;;;;;;9.60;8.60;;;5.80;46.20;;;;;;10275995;28;20587;-73
2021/12/12 03:51:46;;;;;;;10.20;9.20;;;5.80;46.30;;;;;;10280373;28;20246;-73
2021/12/12 03:56:50;;;;;;;9.83;8.83;;;5.80;46.30;;;;;;10279812;28;20304;-73
2021/12/12 04:01:55;;;;;;;10.53;9.30;;;5.90;46.30;;;;;;10278051;28;20241;-73
2021/12/12 04:06:59;;;;;;;9.57;8.67;;;5.90;46.20;;;;;;10279595;28;20243;-73
2021/12/12 04:12:08;;;;;;;9.77;8.77;;;5.90;46.10;;;;;;10277320;28;20256;-72
2021/12/12 04:17:15;;;;;;;9.87;8.97;;;5.90;46.10;;;;;;10277309;28;20224;-72
2021/12/12 04:22:19;;;;;;;9.57;8.13;;;5.80;46.10;;;;;;10278887;28;20236;-73
2021/12/12 04:27:25;;;;;;;8.70;7.70;;;5.90;46.20;;;;;;10280313;28;20239;-72
2021/12/12 04:32:29;;;;;;;8.97;8.03;;;5.90;46.10;;;;;;10275240;28;20232;-73
2021/12/12 04:37:33;;;;;;;8.97;8.10;;;6.00;46.10;;;;;;10275784;28;20694;-70
2021/12/12 04:42:40;;;;;;;9.77;8.37;;;6.00;45.90;;;;;;10277862;28;20239;-70
2021/12/12 04:53:17;;;;;;;8.70;7.73;;;6.10;45.90;;;;;;10275301;28;20678;-70
2021/12/12 04:58:28;;;;;;;7.90;7.20;;;6.10;45.90;;;;;;10274521;28;20717;-70
2021/12/12 05:03:38;;;;;;;7.77;7.10;;;6.00;46.70;;;;;;10277354;28;20732;-73
2021/12/12 05:08:49;;;;;;;8.77;7.23;;;6.00;45.90;;;;;;10275812;28;20744;-73
2021/12/12 05:13:56;;;;;;;8.07;7.27;;;6.00;45.90;;;;;;10276480;28;20236;-73
2021/12/12 05:19:07;;;;;;;7.80;7.00;;;6.00;45.90;;;;;;10273882;28;20240;-73
2021/12/12 05:24:12;;;;;;;9.00;8.10;;;6.00;45.90;;;;;;10275487;28;20240;-72
2021/12/12 05:29:21;;;;;;;8.47;7.67;;;6.00;45.80;;;;;;10275603;28;20242;-73
2021/12/12 05:34:30;;;;;;;8.60;7.70;;;6.00;45.90;;;;;;10272378;28;20227;-73
2021/12/12 05:39:35;;;;;;;7.97;7.17;;;6.00;46.00;;;;;;10275589;28;20722;-73
2021/12/12 05:44:40;;;;;;;8.03;6.77;;;6.00;46.10;;;;;;10270571;28;20236;-73
2021/12/12 05:49:44;;;;;;;8.20;7.47;;;6.00;46.10;;;;;;10275083;28;20239;-73
2021/12/12 05:54:48;;;;;;;8.23;7.43;;;6.00;46.00;;;;;;10276824;28;20238;-73
2021/12/12 05:59:56;;;;;;;7.97;6.93;;;6.10;46.00;;;;;;10275961;28;20718;-73
2021/12/12 06:04:59;;;;;;;7.73;7.00;;;6.10;45.90;;;;;;10275143;28;20246;-73
2021/12/12 06:10:08;;;;;;;7.37;6.67;;;6.10;45.80;;;;;;10276394;28;20235;-71
2021/12/12 06:15:17;;;;;;;6.60;6.00;;;6.10;45.80;;;;;;10273239;28;20240;-71
2021/12/12 06:20:21;;;;;;;6.50;5.83;;;6.10;45.70;;;;;;10273715;28;20242;-71
2021/12/12 06:25:25;;;;;;;6.43;5.90;;;6.10;45.70;;;;;;10276767;28;20334;-69
2021/12/12 06:30:30;;;;;;;6.93;5.50;;;6.10;45.50;;;;;;10271927;28;20231;-70
2021/12/12 06:35:34;;;;;;;5.63;5.10;;;6.10;45.50;;;;;;10275432;28;20652;-69
2021/12/12 06:40:38;;;;;;;5.77;5.27;;;6.10;45.60;;;;;;10273088;28;20231;-69
2021/12/12 06:45:43;;;;;;;6.27;5.67;;;6.10;45.60;;;;;;10272049;28;20242;-69
2021/12/12 06:50:50;;;;;;;6.10;5.57;;;6.10;45.60;;;;;;10272551;28;20243;-69
2021/12/12 06:55:55;;;;;;;6.43;5.83;;;6.10;45.50;;;;;;10278346;28;20224;-71
2021/12/12 07:01:05;;;;;;;5.90;5.30;;;6.20;46.30;;;;;;10280482;28;20243;-71
2021/12/12 07:06:09;;;;;;;6.67;6.00;;;6.20;45.50;;;;;;10280156;28;20345;-73
2021/12/12 07:11:15;;;;;;;7.27;6.67;;;6.20;45.50;;;;;;10279038;28;20240;-69
2021/12/12 07:16:22;;;;;;;8.00;7.20;;;6.20;45.40;;;;;;10277693;28;20232;-69
2021/12/12 07:21:27;;;;;;;9.23;8.23;;;6.20;45.50;;;;;;10281607;28;20247;-69
2021/12/12 07:26:30;;;;;;;7.93;7.10;;;6.10;45.40;;;;;;10280157;28;20227;-69
2021/12/12 07:31:38;;;;;;;7.20;6.60;;;6.10;45.70;;;;;;10279287;28;20227;-73
2021/12/12 07:36:44;;;;;;;8.30;6.67;;;6.10;45.50;;;;;;10281799;28;20259;-73
2021/12/12 07:41:48;;;;;;;6.90;6.30;;;6.10;45.60;;;;;;10277385;28;20234;-72
2021/12/12 07:46:53;;;;;;;6.23;5.67;;;6.10;45.50;;;;;;10278776;28;20228;-73
2021/12/12 07:51:57;;;;;;;6.00;5.47;;;6.10;45.20;;;;;;10280861;28;20231;-71
2021/12/12 07:57:01;;;;;;;6.83;6.23;;;6.00;45.30;;;;;;10276479;28;20237;-71
2021/12/12 08:02:07;;;;;;;5.63;5.13;;;6.00;45.20;;;;;;10279596;28;20232;-72
2021/12/12 08:07:12;;;;;;;5.20;4.70;;;6.00;45.10;;;;;;10275250;28;20328;-72
2021/12/12 08:12:19;;;;;;;4.87;4.47;;;6.00;45.10;;;;;;10279756;28;20236;-72
2021/12/12 08:17:24;;;;;;;3.70;3.40;;;6.00;45.00;;;;;;10275492;28;20239;-72
2021/12/12 08:22:29;;;;;;;4.27;3.60;;;6.00;44.70;;;;;;10273439;28;20235;-72
2021/12/12 08:27:32;;;;;;;3.93;3.63;;;6.00;44.60;;;;;;10270993;28;20235;-72
2021/12/12 08:32:38;;;;;;;3.67;3.37;;;6.00;44.80;;;;;;10276919;28;20318;-72
2021/12/12 08:37:45;;;;;;;3.90;3.53;;;6.10;44.60;;;;;;10273551;28;20223;-72
2021/12/12 08:42:49;;;;;;;3.87;3.43;;;6.10;44.70;;;;;;10276566;28;20242;-72
2021/12/12 08:47:58;;;;;;;3.80;3.50;;;6.20;44.70;;;;;;10275379;28;21089;-72
2021/12/12 08:53:02;;;;;;;4.27;3.70;;;6.20;44.50;;;;;;10276316;28;20254;-72
2021/12/12 08:58:15;;;;;;;3.73;3.47;;;6.30;44.70;;;;;;10273601;28;20660;-72
2021/12/12 09:03:24;;;;;;;4.20;3.90;;;6.30;44.40;;;;;;10276709;28;20231;-72
2021/12/12 09:08:35;;;;;;;4.43;3.73;;;6.40;44.40;;;;;;10277253;28;20238;-72
2021/12/12 09:13:46;;;;;;;3.60;3.30;;;6.40;44.20;;;;;;10272765;28;20219;-72
2021/12/12 09:18:55;;;;;;;4.03;3.73;;;6.50;44.20;;;;;;10268168;28;20278;-72
2021/12/12 09:24:06;;;;;;;4.23;3.90;;;6.50;44.10;;;;;;10274188;28;20224;-72
2021/12/12 09:29:18;;;;;;;4.50;4.10;;;6.50;43.90;;;;;;10274398;28;20245;-72
2021/12/12 09:34:31;;;;;;;4.83;4.33;;;6.50;43.90;;;;;;10276087;28;20234;-70
2021/12/12 09:39:51;;;;;;;4.90;4.50;;;6.50;44.10;;;;;;10269015;28;20792;-70
2021/12/12 09:45:17;;;;;;;5.00;4.60;;;6.60;44.60;;;;;;10264333;28;20238;-71
2021/12/12 09:55:53;;;;;;;5.00;4.60;;;6.80;44.60;;;;;;10270825;28;20220;-70
2021/12/12 10:01:01;;;;;;;4.03;3.73;;;7.00;44.40;;;;;;10272848;28;20235;-71
2021/12/12 10:06:15;;;;;;;7.43;6.30;;;7.10;44.60;;;;;;10273115;28;20231;-71
2021/12/12 10:11:25;;;;;;;4.90;4.50;;;7.20;44.30;;;;;;10272606;28;20242;-71
2021/12/12 10:16:35;;;;;;;4.67;4.27;;;7.30;44.50;;;;;;10273364;28;20231;-72
2021/12/12 10:21:46;;;;;;;4.67;4.30;;;7.30;43.70;;;;;;10273558;28;20235;-72
2021/12/12 10:26:58;;;;;;;7.77;6.97;;;7.40;43.80;;;;;;10270921;28;20247;-72
2021/12/12 10:32:10;;;;;;;4.97;4.57;;;7.40;43.60;;;;;;10267652;28;20227;-72
2021/12/12 10:37:23;;;;;;;6.60;5.97;;;7.40;43.40;;;;;;10269898;28;20258;-72
2021/12/12 10:42:34;;;;;;;6.70;6.00;;;7.30;43.20;;;;;;10267691;28;20243;-72
2021/12/12 10:47:45;;;;;;;6.27;5.77;;;7.20;43.40;;;;;;10268295;28;20236;-72
2021/12/12 10:52:57;;;;;;;5.53;5.03;;;7.20;43.70;;;;;;10276641;28;20240;-74
2021/12/12 10:58:07;;;;;;;5.77;5.27;;;7.30;44.10;;;;;;10270696;28;20232;-72
2021/12/12 11:03:19;;;;;;;5.10;4.70;;;7.30;44.10;;;;;;10274770;28;20219;-75
2021/12/12 11:08:28;;;;;;;5.77;5.27;;;7.40;43.90;;;;;;10275694;28;21116;-76
2021/12/12 11:13:42;;;;;;;5.30;4.83;;;7.50;44.10;;;;;;10276561;28;20231;-75
2021/12/12 11:18:49;;;;;;;6.30;5.70;;;7.50;43.90;;;;;;10276550;28;20733;-74
2021/12/12 11:23:58;;;;;;;6.23;5.73;;;7.60;43.90;;;;;;10274771;28;20608;-75
2021/12/12 11:29:07;;;;;;;5.27;4.87;;;7.60;43.80;;;;;;10270940;28;20248;-75
2021/12/12 11:34:12;;;;;;;5.33;4.93;;;7.60;43.70;;;;;;10272616;28;20257;-75
2021/12/12 11:39:25;;;;;;;5.20;4.80;;;7.60;43.90;;;;;;10272287;28;20247;-75
2021/12/12 11:44:34;;;;;;;5.10;4.70;;;7.70;43.40;;;;;;10279253;28;20232;-75
2021/12/12 11:49:51;;;;;;;5.67;5.17;;;7.70;43.40;;;;;;10277511;28;20236;-75
2021/12/12 11:55:02;;;;;;;5.20;4.80;;;7.80;43.20;;;;;;10280531;28;20234;-72
2021/12/12 12:00:11;;;;;;;5.13;4.73;;;7.80;43.40;;;;;;10281119;28;20231;-72
2021/12/12 12:05:30;;;;;;;4.83;4.43;;;7.90;43.70;;;;;;10280532;28;20232;-72
2021/12/12 12:10:46;;;;;;;5.03;4.63;;;8.00;43.40;;;;;;10279515;28;20312;-72
2021/12/12 12:15:55;;;;;;;5.00;4.60;;;8.00;43.40;;;;;;10278447;28;20307;-72
2021/12/12 12:21:07;;;;;;;5.63;5.13;;;8.10;43.20;;;;;;10278235;28;20674;-71
2021/12/12 12:32:16;;;;;;;5.10;4.60;;;8.20;43.10;;;;;;10277591;28;20723;-71
2021/12/12 12:38:22;;;;;;;5.80;5.20;;;8.20;42.70;;;;;;10273765;28;20234;-72
2021/12/12 12:44:08;;;;;;;6.13;5.63;;;8.20;42.80;;;;;;10276390;28;20245;-74
2021/12/12 12:50:09;;;;;;;5.40;5.00;;;8.20;42.70;;;;;;10273858;28;20231;-74
2021/12/12 12:55:47;;;;;;;5.00;4.60;;;8.20;42.60;;;;;;10276387;28;20826;-75
2021/12/12 13:00:52;;;;;;;6.57;5.97;;;8.20;43.00;;;;;;10277253;28;20240;-74
2021/12/12 13:06:19;;;;;;;7.53;6.93;;;8.20;43.30;;;;;;10271748;28;20256;-70
2021/12/12 13:11:30;;;;;;;6.83;6.17;;;8.20;42.70;;;;;;10274711;28;20236;-71
2021/12/12 13:16:44;;;;;;;8.33;7.57;;;8.20;42.80;;;;;;10275330;28;20235;-72
2021/12/12 13:22:01;;;;;;;6.87;6.27;;;8.20;42.80;;;;;;10272958;28;20235;-72
2021/12/12 13:27:17;;;;;;;6.47;5.87;;;8.30;42.90;;;;;;10274001;28;20608;-71
2021/12/12 13:32:35;;;;;;;6.17;5.67;;;8.30;42.80;;;;;;10268708;28;20257;-71
2021/12/12 13:37:45;;;;;;;6.30;5.70;;;8.30;42.80;;;;;;10275926;28;20362;-70
2021/12/12 13:43:08;;;;;;;7.03;6.43;;;8.30;43.00;;;;;;10278369;28;20232;-70
2021/12/12 13:48:24;;;;;;;8.47;7.70;;;8.20;42.70;;;;;;10268363;28;20689;-70
2021/12/12 13:53:44;;;;;;;9.97;8.97;;;8.20;42.70;;;;;;10274111;28;20235;-70
2021/12/12 13:59:01;;;;;;;10.23;9.23;;;8.20;42.90;;;;;;10269706;28;20741;-70
2021/12/12 14:04:09;;;;;;;9.83;8.83;;;8.30;42.90;;;;;;10269626;28;20334;-70
2021/12/12 14:09:17;;;;;;;9.93;8.93;;;8.30;43.00;;;;;;10273628;28;20242;-70
2021/12/12 14:14:28;;;;;;;12.37;11.17;;;8.20;43.10;;;;;;10271106;28;20230;-69
2021/12/12 14:19:37;;;;;;;9.93;9.00;;;8.30;43.00;;;;;;10263131;28;20242;-70
2021/12/12 14:24:41;;;;;;;10.00;9.00;;;8.20;44.30;;;;;;10267497;28;20225;-70
2021/12/12 14:29:48;;;;;;;12.60;11.40;;;8.30;43.50;;;;;;10272884;28;20243;-69
2021/12/12 14:34:58;;;;;;;10.07;9.13;;;8.30;43.00;;;;;;10267619;28;20228;-70
2021/12/12 14:40:04;;;;;;;11.43;10.27;;;8.30;43.10;;;;;;10267781;28;20231;-70
2021/12/12 14:45:14;;;;;;;11.30;10.20;;;8.30;43.20;;;;;;10272878;28;20228;-70
2021/12/12 14:50:22;;;;;;;11.37;9.57;;;8.20;42.70;;;;;;10273100;28;20250;-73
2021/12/12 14:55:29;;;;;;;9.80;8.80;;;8.20;43.20;;;;;;10275985;28;20228;-73
2021/12/12 15:00:44;;;;;;;8.37;7.67;;;8.20;42.90;;;;;;10275601;28;20242;-73
2021/12/12 15:05:51;;;;;;;9.43;8.63;;;8.20;42.80;;;;;;10273986;28;20227;-73
2021/12/12 15:10:58;;;;;;;8.97;8.17;;;8.20;43.00;;;;;;10275238;28;20252;-72
2021/12/12 15:16:05;;;;;;;6.80;6.10;;;8.20;42.90;;;;;;10277383;28;20231;-70
2021/12/12 15:21:13;;;;;;;9.27;8.47;;;8.10;44.90;;;;;;10277640;28;20734;-70
2021/12/12 15:26:20;;;;;;;10.73;9.73;;;8.20;44.70;;;;;;10276792;28;20232;-76
2021/12/12 15:31:30;;;;;;;10.50;9.60;;;8.30;45.40;;;;;;10278744;28;20235;-73
2021/12/12 15:36:38;;;;;;;17.07;15.37;;;8.50;43.90;;;;;;10275146;28;20234;-73
2021/12/12 15:41:43;;;;;;;17.97;16.20;;;8.70;43.80;;;;;;10278025;28;20227;-73
2021/12/12 15:46:51;;;;;;;31.27;25.40;;;8.70;43.50;;;;;;10275817;28;20236;-73
2021/12/12 15:52:01;;;;;;;250.27;181.87;;;8.70;42.70;;;;;;10278274;28;20228;-73
2021/12/12 15:57:08;;;;;;;83.30;59.47;;;8.70;42.30;;;;;;10276961;28;20223;-73
2021/12/12 16:02:18;;;;;;;53.20;40.43;;;8.70;42.70;;;;;;10279643;28;20235;-73
2021/12/12 16:07:23;;;;;;;36.13;26.97;;;8.60;42.70;;;;;;10279035;28;20792;-73
2021/12/12 16:12:27;;;;;;;19.83;16.63;;;8.70;43.20;;;;;;10274685;28;21846;-73
2021/12/12 16:17:37;;;;;;;25.43;21.70;;;8.70;45.50;;;;;;10278902;28;20239;-69
2021/12/12 16:22:47;;;;;;;18.63;16.63;;;8.90;43.90;;;;;;10280059;28;20602;-69
2021/12/12 16:27:55;;;;;;;16.53;14.67;;;9.00;43.60;;;;;;10278041;28;20266;-69
2021/12/12 16:33:03;;;;;;;14.93;13.37;;;9.00;43.10;;;;;;10275997;28;21023;-69
2021/12/12 16:38:11;;;;;;;12.83;11.53;;;9.00;42.70;;;;;;10274041;28;20230;-69
2021/12/12 16:43:17;;;;;;;12.33;11.20;;;8.90;42.70;;;;;;10276562;28;20607;-69
2021/12/12 16:48:25;;;;;;;12.93;11.63;;;8.90;42.80;;;;;;10269243;28;20724;-69
2021/12/12 16:53:31;;;;;;;13.33;12.03;;;8.80;42.30;;;;;;10263529;28;20244;-69
2021/12/12 16:58:42;;;;;;;12.00;10.87;;;8.80;42.60;;;;;;10261932;28;20713;-70
2021/12/12 17:03:50;;;;;;;10.77;9.77;;;8.70;42.00;;;;;;10276255;28;20736;-71
2021/12/12 17:09:11;;;;;;;10.43;9.53;;;8.70;42.40;;;;;;10275886;28;20239;-71
2021/12/12 17:14:17;;;;;;;10.57;9.60;;;8.60;42.70;;;;;;10272993;28;20227;-71
2021/12/12 17:19:28;;;;;;;13.07;11.77;;;8.60;42.70;;;;;;10274190;28;20657;-71
2021/12/12 17:24:40;;;;;;;13.33;11.93;;;8.50;42.30;;;;;;10266813;28;20228;-71
2021/12/12 17:29:45;;;;;;;12.00;10.90;;;8.40;43.00;;;;;;10269639;28;20240;-71
2021/12/12 17:34:53;;;;;;;10.77;9.87;;;8.40;42.40;;;;;;10277771;28;20236;-71
2021/12/12 17:40:12;;;;;;;99.23;81.97;;;8.30;43.10;;;;;;10274979;28;20242;-71
2021/12/12 17:45:53;;;;;;;119.20;100.87;;;8.20;42.10;;;;;;10274583;28;20755;-71
2021/12/12 17:51:44;;;;;;;63.43;56.43;;;8.20;42.20;;;;;;10270213;28;20235;-70
2021/12/12 17:57:00;;;;;;;18.57;16.40;;;8.10;42.40;;;;;;10271495;28;20227;-71
2021/12/12 18:02:05;;;;;;;13.37;11.77;;;8.00;42.40;;;;;;10272883;28;20238;-71
2021/12/12 18:07:10;;;;;;;11.23;10.17;;;7.90;42.60;;;;;;10273497;28;20718;-70
2021/12/12 18:12:19;;;;;;;9.20;8.30;;;7.80;42.70;;;;;;10273792;28;20232;-71
2021/12/12 18:17:25;;;;;;;8.10;7.40;;;7.80;42.70;;;;;;10275446;28;20236;-71
2021/12/12 18:22:32;;;;;;;7.63;6.90;;;7.80;42.70;;;;;;10274213;28;20534;-71
2021/12/12 18:27:44;;;;;;;6.70;6.10;;;7.80;43.00;;;;;;10273102;28;20246;-71
2021/12/12 18:32:49;;;;;;;6.67;6.07;;;7.70;42.90;;;;;;10274225;28;20737;-71
2021/12/12 18:37:57;;;;;;;6.40;5.80;;;7.80;43.20;;;;;;10275123;28;20224;-71
2021/12/12 18:43:04;;;;;;;6.87;6.27;;;7.70;43.10;;;;;;10271826;28;20599;-71
2021/12/12 18:48:10;;;;;;;6.73;6.13;;;7.70;43.10;;;;;;10267583;28;20235;-71
2021/12/12 18:53:17;;;;;;;9.00;8.17;;;7.70;43.00;;;;;;10279474;28;20270;-71
2021/12/12 18:58:24;;;;;;;7.10;6.43;;;7.70;43.20;;;;;;10280392;28;20238;-71
2021/12/12 19:03:35;;;;;;;4.60;4.20;;;7.70;43.10;;;;;;10280394;28;20231;-74
2021/12/12 19:08:43;;;;;;;4.80;4.37;;;7.70;43.50;;;;;;10277025;28;20245;-74
2021/12/12 19:13:50;;;;;;;3.80;3.50;;;7.60;43.70;;;;;;10280649;28;20849;-74
2021/12/12 19:18:56;;;;;;;4.10;3.50;;;7.60;43.90;;;;;;10283014;28;20234;-73
2021/12/12 19:24:12;;;;;;;4.03;3.73;;;7.60;44.10;;;;;;10281347;28;20714;-74
2021/12/12 19:29:20;;;;;;;3.90;3.60;;;7.50;44.30;;;;;;10281026;28;20235;-74
2021/12/12 19:34:23;;;;;;;3.67;3.37;;;7.50;44.70;;;;;;10283065;28;20725;-73
2021/12/12 19:39:31;;;;;;;3.87;3.57;;;7.40;44.40;;;;;;10279783;28;20232;-72
2021/12/12 19:44:37;;;;;;;3.53;3.23;;;7.40;44.70;;;;;;10276849;28;20698;-74
2021/12/12 19:49:42;;;;;;;3.53;3.23;;;7.30;44.80;;;;;;10278733;28;20741;-74
2021/12/12 19:54:46;;;;;;;3.70;3.40;;;7.20;44.60;;;;;;10280037;28;20228;-74
2021/12/12 19:59:51;;;;;;;2.97;2.77;;;7.20;44.50;;;;;;10279491;28;20729;-74
2021/12/12 20:04:59;;;;;;;2.97;2.77;;;7.20;44.80;;;;;;10278748;28;20671;-74
2021/12/12 20:10:07;;;;;;;3.50;3.20;;;7.10;45.00;;;;;;10281961;28;20235;-73
2021/12/12 20:15:18;;;;;;;3.00;2.77;;;7.00;45.20;;;;;;10278750;28;20314;-74
2021/12/12 20:20:24;;;;;;;3.93;3.63;;;7.00;45.50;;;;;;10277871;28;20228;-74
2021/12/12 20:25:32;;;;;;;3.33;3.03;;;7.00;45.20;;;;;;10278621;28;20232;-74
2021/12/12 20:30:41;;;;;;;2.90;2.70;;;7.00;45.30;;;;;;10272678;28;20235;-74
2021/12/12 20:35:49;;;;;;;2.70;2.50;;;7.00;45.50;;;;;;10270449;28;20228;-73
2021/12/12 20:40:57;;;;;;;2.63;2.43;;;7.00;45.50;;;;;;10278758;28;20231;-74
2021/12/12 20:46:05;;;;;;;2.57;2.37;;;6.90;45.40;;;;;;10278822;28;20227;-74
2021/12/12 20:51:12;;;;;;;2.57;2.37;;;6.90;45.70;;;;;;10278885;28;20240;-73
2021/12/12 20:56:19;;;;;;;2.27;2.10;;;6.90;45.80;;;;;;10276618;28;20317;-74
2021/12/12 21:01:29;;;;;;;2.13;2.03;;;6.90;45.80;;;;;;10271148;28;20599;-73
2021/12/12 21:06:35;;;;;;;2.47;2.27;;;6.80;46.10;;;;;;10275806;28;20232;-74
2021/12/12 21:11:45;;;;;;;2.20;2.10;;;6.80;45.90;;;;;;10276565;28;20252;-74
2021/12/12 21:16:51;;;;;;;2.30;2.17;;;6.80;45.90;;;;;;10272461;28;20238;-73
2021/12/12 21:21:55;;;;;;;2.70;2.50;;;6.80;46.70;;;;;;10280383;28;20231;-74
2021/12/12 21:27:01;;;;;;;2.37;2.17;;;6.80;45.90;;;;;;10275221;28;20240;-74
2021/12/12 21:32:11;;;;;;;2.70;2.50;;;6.80;46.20;;;;;;10267787;28;20236;-74
2021/12/12 21:37:18;;;;;;;2.67;2.47;;;6.90;46.50;;;;;;10270795;28;20235;-74
2021/12/12 21:42:29;;;;;;;2.80;2.60;;;7.00;46.00;;;;;;10268002;28;20275;-73
2021/12/12 21:47:40;;;;;;;2.90;2.70;;;7.00;46.20;;;;;;10266589;28;20231;-74
2021/12/12 21:52:49;;;;;;;3.77;2.83;;;7.00;46.40;;;;;;10268429;28;20621;-70
2021/12/12 21:57:52;;;;;;;3.00;2.80;;;7.00;46.30;;;;;;10267129;28;20239;-70
2021/12/12 22:02:57;;;;;;;3.20;2.90;;;7.00;46.10;;;;;;10267417;28;20745;-70
2021/12/12 22:08:04;;;;;;;3.10;2.90;;;7.00;46.30;;;;;;10265000;28;20715;-70
2021/12/12 22:13:12;;;;;;;3.13;2.93;;;7.00;46.40;;;;;;10270008;28;20227;-70
2021/12/12 22:18:27;;;;;;;3.30;2.97;;;7.00;46.50;;;;;;10263766;28;20669;-70
2021/12/12 22:23:33;;;;;;;3.37;3.07;;;6.90;46.90;;;;;;10269725;28;20234;-74
2021/12/12 22:28:42;;;;;;;3.50;3.20;;;6.90;46.50;;;;;;10266131;28;20236;-73
2021/12/12 22:33:52;;;;;;;3.80;3.50;;;6.90;46.70;;;;;;10268471;28;20231;-73
2021/12/12 22:38:59;;;;;;;3.70;3.40;;;6.90;46.80;;;;;;10261830;28;20227;-74
2021/12/12 22:44:06;;;;;;;3.17;2.93;;;6.90;46.70;;;;;;10264578;28;20227;-73
2021/12/12 22:49:14;;;;;;;3.90;3.60;;;7.00;46.80;;;;;;10263680;28;20632;-74
2021/12/12 22:54:23;;;;;;;3.80;3.60;;;7.00;46.80;;;;;;10266175;28;20232;-74
2021/12/12 22:59:29;;;;;;;3.90;3.60;;;6.90;46.70;;;;;;10267020;28;20227;-74
2021/12/12 23:04:39;;;;;;;3.80;3.53;;;7.00;46.70;;;;;;10270703;28;20611;-74
2021/12/12 23:09:48;;;;;;;3.93;3.60;;;7.00;47.10;;;;;;10269564;28;20247;-74
2021/12/12 23:14:56;;;;;;;3.43;3.13;;;7.10;46.70;;;;;;10263274;28;20665;-74
2021/12/12 23:20:06;;;;;;;3.60;3.30;;;7.10;46.70;;;;;;10264166;28;20236;-74
2021/12/12 23:25:15;;;;;;;3.87;3.57;;;7.10;46.90;;;;;;10266116;28;20622;-73
2021/12/12 23:30:24;;;;;;;3.73;3.43;;;7.10;46.80;;;;;;10265917;28;20235;-74
2021/12/12 23:35:35;;;;;;;3.30;3.10;;;7.10;46.80;;;;;;10266859;28;20235;-73
2021/12/12 23:40:46;;;;;;;3.30;3.10;;;7.10;46.90;;;;;;10276931;28;20258;-74
2021/12/12 23:45:53;;;;;;;3.23;3.03;;;7.10;46.70;;;;;;10278398;28;20239;-74
2021/12/12 23:51:01;;;;;;;3.40;3.20;;;7.20;46.70;;;;;;10278409;28;20239;-74
2021/12/12 23:56:20;;;;;;;3.40;3.20;;;7.20;46.70;;;;;;10275915;28;20239;-73
